sensor_id;sensor_type;location;lat;lon;timestamp;temperature;humidity
47310;DHT22;33046;52.270;6.832;2023-07-29T00:00:13;22.80;98.30
47310;DHT22;33046;52.270;6.832;2023-07-29T00:02:20;22.80;98.30
47310;DHT22;33046;52.270;6.832;2023-07-29T00:04:28;22.80;98.20
47310;DHT22;33046;52.270;6.832;2023-07-29T00:06:35;22.70;98.20
47310;DHT22;33046;52.270;6.832;2023-07-29T00:08:42;22.70;98.20
47310;DHT22;33046;52.270;6.832;2023-07-29T00:10:49;22.70;98.10
47310;DHT22;33046;52.270;6.832;2023-07-29T00:12:56;22.70;98.30
47310;DHT22;33046;52.270;6.832;2023-07-29T00:15:03;22.70;98.10
47310;DHT22;33046;52.270;6.832;2023-07-29T00:17:10;22.70;98.00
47310;DHT22;33046;52.270;6.832;2023-07-29T00:19:17;22.60;97.90
47310;DHT22;33046;52.270;6.832;2023-07-29T00:21:25;22.60;98.00
47310;DHT22;33046;52.270;6.832;2023-07-29T00:23:32;22.60;98.00
47310;DHT22;33046;52.270;6.832;2023-07-29T00:25:39;22.60;98.00
47310;DHT22;33046;52.270;6.832;2023-07-29T00:27:46;22.50;98.00
47310;DHT22;33046;52.270;6.832;2023-07-29T00:29:53;22.50;97.90
47310;DHT22;33046;52.270;6.832;2023-07-29T00:32:00;22.50;98.00
47310;DHT22;33046;52.270;6.832;2023-07-29T00:34:07;22.50;98.00
47310;DHT22;33046;52.270;6.832;2023-07-29T00:36:15;22.40;98.00
47310;DHT22;33046;52.270;6.832;2023-07-29T00:38:23;22.40;98.00
47310;DHT22;33046;52.270;6.832;2023-07-29T00:40:31;22.40;98.00
47310;DHT22;33046;52.270;6.832;2023-07-29T00:42:40;22.40;98.00
47310;DHT22;33046;52.270;6.832;2023-07-29T00:44:48;22.40;98.00
47310;DHT22;33046;52.270;6.832;2023-07-29T00:46:55;22.40;98.00
47310;DHT22;33046;52.270;6.832;2023-07-29T00:49:02;22.40;98.00
47310;DHT22;33046;52.270;6.832;2023-07-29T00:51:09;22.40;98.00
47310;DHT22;33046;52.270;6.832;2023-07-29T00:53:16;22.40;98.00
47310;DHT22;33046;52.270;6.832;2023-07-29T00:55:24;22.30;97.90
47310;DHT22;33046;52.270;6.832;2023-07-29T00:57:32;22.30;97.90
47310;DHT22;33046;52.270;6.832;2023-07-29T00:59:40;22.30;97.90
47310;DHT22;33046;52.270;6.832;2023-07-29T01:01:47;22.30;98.00
47310;DHT22;33046;52.270;6.832;2023-07-29T01:03:54;22.20;97.90
47310;DHT22;33046;52.270;6.832;2023-07-29T01:06:09;22.20;97.90
47310;DHT22;33046;52.270;6.832;2023-07-29T01:08:24;22.20;97.90
47310;DHT22;33046;52.270;6.832;2023-07-29T01:10:38;22.20;97.90
47310;DHT22;33046;52.270;6.832;2023-07-29T01:12:51;22.20;98.00
47310;DHT22;33046;52.270;6.832;2023-07-29T01:15:09;22.20;98.20
47310;DHT22;33046;52.270;6.832;2023-07-29T01:17:23;22.20;98.20
47310;DHT22;33046;52.270;6.832;2023-07-29T01:19:43;22.10;98.20
47310;DHT22;33046;52.270;6.832;2023-07-29T01:21:52;22.10;98.20
47310;DHT22;33046;52.270;6.832;2023-07-29T01:24:00;22.10;98.20
47310;DHT22;33046;52.270;6.832;2023-07-29T01:26:07;22.10;98.30
47310;DHT22;33046;52.270;6.832;2023-07-29T01:28:14;22.00;98.30
47310;DHT22;33046;52.270;6.832;2023-07-29T01:30:25;22.00;98.40
47310;DHT22;33046;52.270;6.832;2023-07-29T01:32:37;22.00;98.50
47310;DHT22;33046;52.270;6.832;2023-07-29T01:34:51;22.00;98.60
47310;DHT22;33046;52.270;6.832;2023-07-29T01:37:01;22.00;98.60
47310;DHT22;33046;52.270;6.832;2023-07-29T01:39:11;22.00;98.50
47310;DHT22;33046;52.270;6.832;2023-07-29T01:41:19;22.00;98.60
47310;DHT22;33046;52.270;6.832;2023-07-29T01:43:27;21.90;98.60
47310;DHT22;33046;52.270;6.832;2023-07-29T01:45:34;21.90;98.60
47310;DHT22;33046;52.270;6.832;2023-07-29T01:47:41;21.90;98.70
47310;DHT22;33046;52.270;6.832;2023-07-29T01:49:48;21.90;98.70
47310;DHT22;33046;52.270;6.832;2023-07-29T01:51:55;21.90;98.80
47310;DHT22;33046;52.270;6.832;2023-07-29T01:54:02;21.90;98.90
47310;DHT22;33046;52.270;6.832;2023-07-29T01:56:11;21.80;98.90
47310;DHT22;33046;52.270;6.832;2023-07-29T01:58:22;21.80;98.80
47310;DHT22;33046;52.270;6.832;2023-07-29T02:00:29;21.80;98.90
47310;DHT22;33046;52.270;6.832;2023-07-29T02:02:36;21.80;98.90
47310;DHT22;33046;52.270;6.832;2023-07-29T02:04:43;21.80;98.90
47310;DHT22;33046;52.270;6.832;2023-07-29T02:06:50;21.70;98.90
47310;DHT22;33046;52.270;6.832;2023-07-29T02:08:57;21.70;99.20
47310;DHT22;33046;52.270;6.832;2023-07-29T02:11:04;21.70;99.10
47310;DHT22;33046;52.270;6.832;2023-07-29T02:13:12;21.70;99.10
47310;DHT22;33046;52.270;6.832;2023-07-29T02:15:19;21.70;99.10
47310;DHT22;33046;52.270;6.832;2023-07-29T02:17:26;21.70;99.10
47310;DHT22;33046;52.270;6.832;2023-07-29T02:19:33;21.70;99.00
47310;DHT22;33046;52.270;6.832;2023-07-29T02:21:40;21.70;99.10
47310;DHT22;33046;52.270;6.832;2023-07-29T02:23:47;21.60;99.00
47310;DHT22;33046;52.270;6.832;2023-07-29T02:25:53;21.60;99.00
47310;DHT22;33046;52.270;6.832;2023-07-29T02:28:00;21.50;99.10
47310;DHT22;33046;52.270;6.832;2023-07-29T02:30:09;21.50;99.10
47310;DHT22;33046;52.270;6.832;2023-07-29T02:32:16;21.50;99.20
47310;DHT22;33046;52.270;6.832;2023-07-29T02:34:23;21.50;99.30
47310;DHT22;33046;52.270;6.832;2023-07-29T02:36:31;21.50;99.20
47310;DHT22;33046;52.270;6.832;2023-07-29T02:38:38;21.50;99.20
47310;DHT22;33046;52.270;6.832;2023-07-29T02:40:45;21.50;99.30
47310;DHT22;33046;52.270;6.832;2023-07-29T02:42:52;21.40;99.40
47310;DHT22;33046;52.270;6.832;2023-07-29T02:44:59;21.40;99.50
47310;DHT22;33046;52.270;6.832;2023-07-29T02:47:07;21.40;99.50
47310;DHT22;33046;52.270;6.832;2023-07-29T02:49:14;21.40;99.60
47310;DHT22;33046;52.270;6.832;2023-07-29T02:51:21;21.40;99.70
47310;DHT22;33046;52.270;6.832;2023-07-29T02:53:28;21.40;99.80
47310;DHT22;33046;52.270;6.832;2023-07-29T02:55:35;21.40;99.90
47310;DHT22;33046;52.270;6.832;2023-07-29T02:57:42;21.40;99.90
47310;DHT22;33046;52.270;6.832;2023-07-29T02:59:49;21.40;99.90
47310;DHT22;33046;52.270;6.832;2023-07-29T03:01:55;21.40;99.90
47310;DHT22;33046;52.270;6.832;2023-07-29T03:04:04;21.40;99.90
47310;DHT22;33046;52.270;6.832;2023-07-29T03:06:13;21.40;99.90
47310;DHT22;33046;52.270;6.832;2023-07-29T03:08:20;21.40;99.90
47310;DHT22;33046;52.270;6.832;2023-07-29T03:10:27;21.50;99.90
47310;DHT22;33046;52.270;6.832;2023-07-29T03:12:34;21.40;99.90
47310;DHT22;33046;52.270;6.832;2023-07-29T03:14:41;21.40;99.90
47310;DHT22;33046;52.270;6.832;2023-07-29T03:16:48;21.30;99.90
47310;DHT22;33046;52.270;6.832;2023-07-29T03:18:55;21.40;99.90
47310;DHT22;33046;52.270;6.832;2023-07-29T03:21:04;21.40;99.90
47310;DHT22;33046;52.270;6.832;2023-07-29T03:23:11;21.40;99.90
47310;DHT22;33046;52.270;6.832;2023-07-29T03:25:18;21.40;99.90
47310;DHT22;33046;52.270;6.832;2023-07-29T03:27:25;21.40;99.90
47310;DHT22;33046;52.270;6.832;2023-07-29T03:29:31;21.40;99.90
47310;DHT22;33046;52.270;6.832;2023-07-29T03:31:38;21.40;99.90
47310;DHT22;33046;52.270;6.832;2023-07-29T03:33:45;21.40;99.90
47310;DHT22;33046;52.270;6.832;2023-07-29T03:35:53;21.40;99.90
47310;DHT22;33046;52.270;6.832;2023-07-29T03:38:01;21.30;99.90
47310;DHT22;33046;52.270;6.832;2023-07-29T03:40:09;21.40;99.90
47310;DHT22;33046;52.270;6.832;2023-07-29T03:42:16;21.30;99.90
47310;DHT22;33046;52.270;6.832;2023-07-29T03:44:23;21.40;99.90
47310;DHT22;33046;52.270;6.832;2023-07-29T03:46:31;21.40;99.90
47310;DHT22;33046;52.270;6.832;2023-07-29T03:48:38;21.30;99.90
47310;DHT22;33046;52.270;6.832;2023-07-29T03:50:45;21.30;99.90
47310;DHT22;33046;52.270;6.832;2023-07-29T03:52:51;21.40;99.90
47310;DHT22;33046;52.270;6.832;2023-07-29T03:55:00;21.40;99.90
47310;DHT22;33046;52.270;6.832;2023-07-29T03:57:07;21.40;99.90
47310;DHT22;33046;52.270;6.832;2023-07-29T03:59:14;21.40;99.90
47310;DHT22;33046;52.270;6.832;2023-07-29T04:01:20;21.30;99.90
47310;DHT22;33046;52.270;6.832;2023-07-29T04:03:27;21.30;99.90
47310;DHT22;33046;52.270;6.832;2023-07-29T04:05:35;21.30;99.90
47310;DHT22;33046;52.270;6.832;2023-07-29T04:07:42;21.30;99.90
47310;DHT22;33046;52.270;6.832;2023-07-29T04:09:49;21.30;99.90
47310;DHT22;33046;52.270;6.832;2023-07-29T04:11:58;21.30;99.90
47310;DHT22;33046;52.270;6.832;2023-07-29T04:14:04;21.40;99.90
47310;DHT22;33046;52.270;6.832;2023-07-29T04:16:11;21.30;99.90
47310;DHT22;33046;52.270;6.832;2023-07-29T04:18:18;21.30;99.90
47310;DHT22;33046;52.270;6.832;2023-07-29T04:20:27;21.30;99.90
47310;DHT22;33046;52.270;6.832;2023-07-29T04:22:33;21.30;99.90
47310;DHT22;33046;52.270;6.832;2023-07-29T04:24:40;21.30;99.90
47310;DHT22;33046;52.270;6.832;2023-07-29T04:26:47;21.40;99.90
47310;DHT22;33046;52.270;6.832;2023-07-29T04:28:55;21.40;99.90
47310;DHT22;33046;52.270;6.832;2023-07-29T04:31:02;21.30;99.90
47310;DHT22;33046;52.270;6.832;2023-07-29T04:33:09;21.40;99.90
47310;DHT22;33046;52.270;6.832;2023-07-29T04:35:17;21.40;99.90
47310;DHT22;33046;52.270;6.832;2023-07-29T04:37:24;21.30;99.90
47310;DHT22;33046;52.270;6.832;2023-07-29T04:39:30;21.30;99.90
47310;DHT22;33046;52.270;6.832;2023-07-29T04:41:37;21.40;99.90
47310;DHT22;33046;52.270;6.832;2023-07-29T04:43:44;21.40;99.90
47310;DHT22;33046;52.270;6.832;2023-07-29T04:45:52;21.40;99.90
47310;DHT22;33046;52.270;6.832;2023-07-29T04:47:59;21.40;99.90
47310;DHT22;33046;52.270;6.832;2023-07-29T04:50:07;21.40;99.90
47310;DHT22;33046;52.270;6.832;2023-07-29T04:52:16;21.40;99.90
47310;DHT22;33046;52.270;6.832;2023-07-29T04:54:22;21.40;99.90
47310;DHT22;33046;52.270;6.832;2023-07-29T04:56:29;21.40;99.90
47310;DHT22;33046;52.270;6.832;2023-07-29T04:58:36;21.40;99.90
47310;DHT22;33046;52.270;6.832;2023-07-29T05:00:43;21.50;99.90
47310;DHT22;33046;52.270;6.832;2023-07-29T05:02:51;21.40;99.90
47310;DHT22;33046;52.270;6.832;2023-07-29T05:04:58;21.50;99.90
47310;DHT22;33046;52.270;6.832;2023-07-29T05:07:05;21.50;99.90
47310;DHT22;33046;52.270;6.832;2023-07-29T05:09:13;21.50;99.90
47310;DHT22;33046;52.270;6.832;2023-07-29T05:11:20;21.50;99.90
47310;DHT22;33046;52.270;6.832;2023-07-29T05:13:27;21.50;99.90
47310;DHT22;33046;52.270;6.832;2023-07-29T05:15:34;21.50;99.90
47310;DHT22;33046;52.270;6.832;2023-07-29T05:17:41;21.60;99.90
47310;DHT22;33046;52.270;6.832;2023-07-29T05:19:50;21.60;99.90
47310;DHT22;33046;52.270;6.832;2023-07-29T05:21:57;21.60;99.90
47310;DHT22;33046;52.270;6.832;2023-07-29T05:24:04;21.60;99.90
47310;DHT22;33046;52.270;6.832;2023-07-29T05:26:11;21.70;99.90
47310;DHT22;33046;52.270;6.832;2023-07-29T05:28:18;21.70;99.90
47310;DHT22;33046;52.270;6.832;2023-07-29T05:30:25;21.60;99.90
47310;DHT22;33046;52.270;6.832;2023-07-29T05:32:32;21.70;99.90
47310;DHT22;33046;52.270;6.832;2023-07-29T05:34:39;21.70;99.90
47310;DHT22;33046;52.270;6.832;2023-07-29T05:36:47;21.70;99.90
47310;DHT22;33046;52.270;6.832;2023-07-29T05:38:54;21.70;99.90
47310;DHT22;33046;52.270;6.832;2023-07-29T05:41:01;21.70;99.90
47310;DHT22;33046;52.270;6.832;2023-07-29T05:43:08;21.70;99.90
47310;DHT22;33046;52.270;6.832;2023-07-29T05:45:15;21.80;99.90
47310;DHT22;33046;52.270;6.832;2023-07-29T05:47:22;21.80;99.90
47310;DHT22;33046;52.270;6.832;2023-07-29T05:49:29;21.80;99.90
47310;DHT22;33046;52.270;6.832;2023-07-29T05:51:36;21.80;99.90
47310;DHT22;33046;52.270;6.832;2023-07-29T05:53:44;21.80;99.90
47310;DHT22;33046;52.270;6.832;2023-07-29T05:55:51;21.80;99.90
47310;DHT22;33046;52.270;6.832;2023-07-29T05:57:58;21.80;99.90
47310;DHT22;33046;52.270;6.832;2023-07-29T06:00:06;21.80;99.90
47310;DHT22;33046;52.270;6.832;2023-07-29T06:02:18;21.80;99.90
47310;DHT22;33046;52.270;6.832;2023-07-29T06:04:25;21.80;99.90
47310;DHT22;33046;52.270;6.832;2023-07-29T06:06:32;21.80;99.90
47310;DHT22;33046;52.270;6.832;2023-07-29T06:08:39;21.90;99.90
47310;DHT22;33046;52.270;6.832;2023-07-29T06:10:47;22.00;99.90
47310;DHT22;33046;52.270;6.832;2023-07-29T06:12:54;22.00;99.50
47310;DHT22;33046;52.270;6.832;2023-07-29T06:15:01;22.10;99.30
47310;DHT22;33046;52.270;6.832;2023-07-29T06:17:08;22.10;99.10
47310;DHT22;33046;52.270;6.832;2023-07-29T06:19:14;22.20;99.00
47310;DHT22;33046;52.270;6.832;2023-07-29T06:21:21;22.20;98.80
47310;DHT22;33046;52.270;6.832;2023-07-29T06:23:29;22.30;98.60
47310;DHT22;33046;52.270;6.832;2023-07-29T06:25:36;22.30;98.40
47310;DHT22;33046;52.270;6.832;2023-07-29T06:27:44;22.30;98.10
47310;DHT22;33046;52.270;6.832;2023-07-29T06:29:51;22.50;97.70
47310;DHT22;33046;52.270;6.832;2023-07-29T06:31:58;22.60;97.50
47310;DHT22;33046;52.270;6.832;2023-07-29T06:34:05;22.70;97.30
47310;DHT22;33046;52.270;6.832;2023-07-29T06:36:12;22.80;97.10
47310;DHT22;33046;52.270;6.832;2023-07-29T06:38:19;22.80;97.20
47310;DHT22;33046;52.270;6.832;2023-07-29T06:40:25;22.80;96.50
47310;DHT22;33046;52.270;6.832;2023-07-29T06:42:32;22.80;96.30
47310;DHT22;33046;52.270;6.832;2023-07-29T06:44:41;22.90;96.20
47310;DHT22;33046;52.270;6.832;2023-07-29T06:46:48;22.80;96.10
47310;DHT22;33046;52.270;6.832;2023-07-29T06:48:54;22.80;95.90
47310;DHT22;33046;52.270;6.832;2023-07-29T06:51:01;22.80;95.60
47310;DHT22;33046;52.270;6.832;2023-07-29T06:53:09;22.80;95.70
47310;DHT22;33046;52.270;6.832;2023-07-29T06:55:16;22.80;95.50
47310;DHT22;33046;52.270;6.832;2023-07-29T06:57:23;22.80;95.50
47310;DHT22;33046;52.270;6.832;2023-07-29T06:59:30;22.70;95.40
47310;DHT22;33046;52.270;6.832;2023-07-29T07:01:38;22.60;95.60
47310;DHT22;33046;52.270;6.832;2023-07-29T07:03:45;22.80;95.60
47310;DHT22;33046;52.270;6.832;2023-07-29T07:05:52;22.80;95.30
47310;DHT22;33046;52.270;6.832;2023-07-29T07:07:58;22.70;95.30
47310;DHT22;33046;52.270;6.832;2023-07-29T07:10:06;22.70;95.20
47310;DHT22;33046;52.270;6.832;2023-07-29T07:12:13;22.80;95.30
47310;DHT22;33046;52.270;6.832;2023-07-29T07:14:20;22.90;95.20
47310;DHT22;33046;52.270;6.832;2023-07-29T07:16:27;22.90;95.00
47310;DHT22;33046;52.270;6.832;2023-07-29T07:18:35;22.90;94.90
47310;DHT22;33046;52.270;6.832;2023-07-29T07:20:42;22.90;94.80
47310;DHT22;33046;52.270;6.832;2023-07-29T07:22:48;22.90;94.80
47310;DHT22;33046;52.270;6.832;2023-07-29T07:24:55;22.90;94.70
47310;DHT22;33046;52.270;6.832;2023-07-29T07:27:02;23.00;94.60
47310;DHT22;33046;52.270;6.832;2023-07-29T07:29:09;22.90;94.70
47310;DHT22;33046;52.270;6.832;2023-07-29T07:31:16;23.00;94.30
47310;DHT22;33046;52.270;6.832;2023-07-29T07:33:24;23.00;94.70
47310;DHT22;33046;52.270;6.832;2023-07-29T07:35:32;23.10;94.90
47310;DHT22;33046;52.270;6.832;2023-07-29T07:37:39;23.20;94.50
47310;DHT22;33046;52.270;6.832;2023-07-29T07:39:46;23.30;94.40
47310;DHT22;33046;52.270;6.832;2023-07-29T07:41:53;23.30;94.40
47310;DHT22;33046;52.270;6.832;2023-07-29T07:44:00;23.40;94.10
47310;DHT22;33046;52.270;6.832;2023-07-29T07:46:06;23.40;93.90
47310;DHT22;33046;52.270;6.832;2023-07-29T07:48:13;23.40;93.90
47310;DHT22;33046;52.270;6.832;2023-07-29T07:50:20;23.40;93.70
47310;DHT22;33046;52.270;6.832;2023-07-29T07:52:29;23.40;93.70
47310;DHT22;33046;52.270;6.832;2023-07-29T07:54:36;23.60;93.70
47310;DHT22;33046;52.270;6.832;2023-07-29T07:56:43;23.60;93.70
47310;DHT22;33046;52.270;6.832;2023-07-29T07:58:50;23.60;94.00
47310;DHT22;33046;52.270;6.832;2023-07-29T08:01:01;23.70;93.60
47310;DHT22;33046;52.270;6.832;2023-07-29T08:03:08;23.80;93.60
47310;DHT22;33046;52.270;6.832;2023-07-29T08:05:15;23.90;93.40
47310;DHT22;33046;52.270;6.832;2023-07-29T08:07:22;23.90;93.70
47310;DHT22;33046;52.270;6.832;2023-07-29T08:09:30;23.90;93.60
47310;DHT22;33046;52.270;6.832;2023-07-29T08:11:37;23.90;93.20
47310;DHT22;33046;52.270;6.832;2023-07-29T08:13:44;24.00;93.20
47310;DHT22;33046;52.270;6.832;2023-07-29T08:15:52;23.90;93.30
47310;DHT22;33046;52.270;6.832;2023-07-29T08:17:59;23.90;93.40
47310;DHT22;33046;52.270;6.832;2023-07-29T08:20:07;24.00;93.30
47310;DHT22;33046;52.270;6.832;2023-07-29T08:22:14;24.10;93.40
47310;DHT22;33046;52.270;6.832;2023-07-29T08:24:21;24.10;93.40
47310;DHT22;33046;52.270;6.832;2023-07-29T08:26:29;24.10;93.10
47310;DHT22;33046;52.270;6.832;2023-07-29T08:28:37;24.20;93.20
47310;DHT22;33046;52.270;6.832;2023-07-29T08:30:44;24.20;93.00
47310;DHT22;33046;52.270;6.832;2023-07-29T08:32:51;24.30;93.10
47310;DHT22;33046;52.270;6.832;2023-07-29T08:34:58;24.40;93.10
47310;DHT22;33046;52.270;6.832;2023-07-29T08:37:06;24.40;93.00
47310;DHT22;33046;52.270;6.832;2023-07-29T08:39:12;24.40;93.00
47310;DHT22;33046;52.270;6.832;2023-07-29T08:41:21;24.50;92.90
47310;DHT22;33046;52.270;6.832;2023-07-29T08:43:32;24.50;92.70
47310;DHT22;33046;52.270;6.832;2023-07-29T08:45:40;24.50;92.40
47310;DHT22;33046;52.270;6.832;2023-07-29T08:47:48;24.50;92.30
47310;DHT22;33046;52.270;6.832;2023-07-29T08:49:57;24.50;92.40
47310;DHT22;33046;52.270;6.832;2023-07-29T08:52:07;24.60;92.00
47310;DHT22;33046;52.270;6.832;2023-07-29T08:54:14;24.50;91.80
47310;DHT22;33046;52.270;6.832;2023-07-29T08:56:21;24.50;92.00
47310;DHT22;33046;52.270;6.832;2023-07-29T08:58:28;24.50;92.00
47310;DHT22;33046;52.270;6.832;2023-07-29T09:00:37;24.40;92.00
47310;DHT22;33046;52.270;6.832;2023-07-29T09:02:45;24.50;92.10
47310;DHT22;33046;52.270;6.832;2023-07-29T09:04:52;24.60;92.30
47310;DHT22;33046;52.270;6.832;2023-07-29T09:06:59;24.70;92.20
47310;DHT22;33046;52.270;6.832;2023-07-29T09:09:07;24.70;91.80
47310;DHT22;33046;52.270;6.832;2023-07-29T09:11:14;24.80;91.90
47310;DHT22;33046;52.270;6.832;2023-07-29T09:13:22;24.80;91.40
47310;DHT22;33046;52.270;6.832;2023-07-29T09:15:29;24.80;91.20
47310;DHT22;33046;52.270;6.832;2023-07-29T09:17:38;24.80;91.50
47310;DHT22;33046;52.270;6.832;2023-07-29T09:19:48;24.90;91.50
47310;DHT22;33046;52.270;6.832;2023-07-29T09:21:54;24.90;91.10
47310;DHT22;33046;52.270;6.832;2023-07-29T09:24:03;25.00;91.50
47310;DHT22;33046;52.270;6.832;2023-07-29T09:26:11;25.10;91.50
47310;DHT22;33046;52.270;6.832;2023-07-29T09:28:19;25.00;91.00
47310;DHT22;33046;52.270;6.832;2023-07-29T09:30:26;25.10;91.10
47310;DHT22;33046;52.270;6.832;2023-07-29T09:32:33;25.20;90.80
47310;DHT22;33046;52.270;6.832;2023-07-29T09:34:42;25.20;90.90
47310;DHT22;33046;52.270;6.832;2023-07-29T09:36:50;25.20;90.70
47310;DHT22;33046;52.270;6.832;2023-07-29T09:38:57;25.20;90.70
47310;DHT22;33046;52.270;6.832;2023-07-29T09:41:04;25.10;90.60
47310;DHT22;33046;52.270;6.832;2023-07-29T09:43:11;25.10;90.70
47310;DHT22;33046;52.270;6.832;2023-07-29T09:45:22;25.10;90.40
47310;DHT22;33046;52.270;6.832;2023-07-29T09:47:29;25.00;90.50
47310;DHT22;33046;52.270;6.832;2023-07-29T09:49:36;25.00;91.00
47310;DHT22;33046;52.270;6.832;2023-07-29T09:51:44;24.90;91.00
47310;DHT22;33046;52.270;6.832;2023-07-29T09:53:51;24.90;90.90
47310;DHT22;33046;52.270;6.832;2023-07-29T09:55:58;25.00;90.70
47310;DHT22;33046;52.270;6.832;2023-07-29T09:58:05;24.90;90.30
47310;DHT22;33046;52.270;6.832;2023-07-29T10:00:12;24.90;90.10
47310;DHT22;33046;52.270;6.832;2023-07-29T10:02:20;24.90;90.20
47310;DHT22;33046;52.270;6.832;2023-07-29T10:04:29;25.00;90.20
47310;DHT22;33046;52.270;6.832;2023-07-29T10:06:37;24.90;90.30
47310;DHT22;33046;52.270;6.832;2023-07-29T10:08:48;24.80;90.70
47310;DHT22;33046;52.270;6.832;2023-07-29T10:10:56;24.80;90.40
47310;DHT22;33046;52.270;6.832;2023-07-29T10:13:05;24.90;90.50
47310;DHT22;33046;52.270;6.832;2023-07-29T10:15:13;24.90;90.20
47310;DHT22;33046;52.270;6.832;2023-07-29T10:17:21;24.90;90.10
47310;DHT22;33046;52.270;6.832;2023-07-29T10:19:28;25.00;90.50
47310;DHT22;33046;52.270;6.832;2023-07-29T10:21:36;25.10;90.30
47310;DHT22;33046;52.270;6.832;2023-07-29T10:23:47;25.20;90.30
47310;DHT22;33046;52.270;6.832;2023-07-29T10:26:01;25.30;90.30
47310;DHT22;33046;52.270;6.832;2023-07-29T10:28:11;25.40;90.20
47310;DHT22;33046;52.270;6.832;2023-07-29T10:30:19;25.30;89.80
47310;DHT22;33046;52.270;6.832;2023-07-29T10:32:27;25.40;90.00
47310;DHT22;33046;52.270;6.832;2023-07-29T10:34:35;25.40;90.10
47310;DHT22;33046;52.270;6.832;2023-07-29T10:36:44;25.40;89.30
47310;DHT22;33046;52.270;6.832;2023-07-29T10:38:53;25.40;90.00
47310;DHT22;33046;52.270;6.832;2023-07-29T10:41:00;25.50;90.10
47310;DHT22;33046;52.270;6.832;2023-07-29T10:43:10;25.50;90.20
47310;DHT22;33046;52.270;6.832;2023-07-29T10:45:18;25.50;90.30
47310;DHT22;33046;52.270;6.832;2023-07-29T10:47:26;25.50;90.00
47310;DHT22;33046;52.270;6.832;2023-07-29T10:49:35;25.60;90.10
47310;DHT22;33046;52.270;6.832;2023-07-29T10:51:42;25.60;89.30
47310;DHT22;33046;52.270;6.832;2023-07-29T10:53:54;25.50;89.00
47310;DHT22;33046;52.270;6.832;2023-07-29T10:56:02;25.50;89.60
47310;DHT22;33046;52.270;6.832;2023-07-29T10:58:13;25.60;89.90
47310;DHT22;33046;52.270;6.832;2023-07-29T11:00:20;25.70;89.10
47310;DHT22;33046;52.270;6.832;2023-07-29T11:02:30;25.70;89.10
47310;DHT22;33046;52.270;6.832;2023-07-29T11:04:46;25.70;88.10
47310;DHT22;33046;52.270;6.832;2023-07-29T11:07:19;25.70;88.50
47310;DHT22;33046;52.270;6.832;2023-07-29T11:09:41;25.70;88.70
47310;DHT22;33046;52.270;6.832;2023-07-29T11:11:50;25.70;88.70
47310;DHT22;33046;52.270;6.832;2023-07-29T11:13:59;25.70;88.80
47310;DHT22;33046;52.270;6.832;2023-07-29T11:16:06;25.70;88.80
47310;DHT22;33046;52.270;6.832;2023-07-29T11:18:13;25.80;88.80
47310;DHT22;33046;52.270;6.832;2023-07-29T11:20:22;26.00;88.30
47310;DHT22;33046;52.270;6.832;2023-07-29T11:22:29;26.00;87.70
47310;DHT22;33046;52.270;6.832;2023-07-29T11:24:42;26.00;87.20
47310;DHT22;33046;52.270;6.832;2023-07-29T11:26:49;26.10;87.30
47310;DHT22;33046;52.270;6.832;2023-07-29T11:28:56;26.10;87.80
47310;DHT22;33046;52.270;6.832;2023-07-29T11:31:03;26.10;86.90
47310;DHT22;33046;52.270;6.832;2023-07-29T11:33:10;26.00;86.50
47310;DHT22;33046;52.270;6.832;2023-07-29T11:35:18;25.90;86.40
47310;DHT22;33046;52.270;6.832;2023-07-29T11:37:25;25.80;86.10
47310;DHT22;33046;52.270;6.832;2023-07-29T11:39:32;25.70;86.30
47310;DHT22;33046;52.270;6.832;2023-07-29T11:41:42;25.70;86.70
47310;DHT22;33046;52.270;6.832;2023-07-29T11:43:49;25.60;87.10
47310;DHT22;33046;52.270;6.832;2023-07-29T11:45:56;25.50;87.40
47310;DHT22;33046;52.270;6.832;2023-07-29T11:48:03;25.50;86.50
47310;DHT22;33046;52.270;6.832;2023-07-29T11:50:11;25.50;87.20
47310;DHT22;33046;52.270;6.832;2023-07-29T11:52:18;25.50;87.50
47310;DHT22;33046;52.270;6.832;2023-07-29T11:54:25;25.50;87.20
47310;DHT22;33046;52.270;6.832;2023-07-29T11:56:33;25.50;86.10
47310;DHT22;33046;52.270;6.832;2023-07-29T11:58:42;25.50;87.30
47310;DHT22;33046;52.270;6.832;2023-07-29T12:00:49;25.50;87.10
47310;DHT22;33046;52.270;6.832;2023-07-29T12:02:56;25.50;87.40
47310;DHT22;33046;52.270;6.832;2023-07-29T12:05:03;25.50;88.00
47310;DHT22;33046;52.270;6.832;2023-07-29T12:07:11;25.60;88.00
47310;DHT22;33046;52.270;6.832;2023-07-29T12:09:19;25.70;87.80
47310;DHT22;33046;52.270;6.832;2023-07-29T12:11:26;25.70;87.40
47310;DHT22;33046;52.270;6.832;2023-07-29T12:13:33;25.70;87.50
47310;DHT22;33046;52.270;6.832;2023-07-29T12:15:42;25.70;87.70
47310;DHT22;33046;52.270;6.832;2023-07-29T12:17:52;25.70;87.00
47310;DHT22;33046;52.270;6.832;2023-07-29T12:19:59;25.70;85.90
47310;DHT22;33046;52.270;6.832;2023-07-29T12:22:07;25.70;86.30
47310;DHT22;33046;52.270;6.832;2023-07-29T12:24:14;25.60;86.90
47310;DHT22;33046;52.270;6.832;2023-07-29T12:26:27;25.60;88.00
47310;DHT22;33046;52.270;6.832;2023-07-29T12:28:34;25.50;90.10
47310;DHT22;33046;52.270;6.832;2023-07-29T12:30:45;25.40;91.40
47310;DHT22;33046;52.270;6.832;2023-07-29T12:32:52;25.50;91.70
47310;DHT22;33046;52.270;6.832;2023-07-29T12:34:59;25.50;91.40
47310;DHT22;33046;52.270;6.832;2023-07-29T12:37:06;25.50;91.20
47310;DHT22;33046;52.270;6.832;2023-07-29T12:39:18;25.50;91.90
47310;DHT22;33046;52.270;6.832;2023-07-29T12:41:25;25.50;92.10
47310;DHT22;33046;52.270;6.832;2023-07-29T12:43:32;25.50;91.40
47310;DHT22;33046;52.270;6.832;2023-07-29T12:45:39;25.50;91.60
47310;DHT22;33046;52.270;6.832;2023-07-29T12:47:47;25.40;91.60
47310;DHT22;33046;52.270;6.832;2023-07-29T12:49:54;25.40;92.10
47310;DHT22;33046;52.270;6.832;2023-07-29T12:52:01;25.40;91.30
47310;DHT22;33046;52.270;6.832;2023-07-29T12:54:08;25.40;92.40
47310;DHT22;33046;52.270;6.832;2023-07-29T12:56:15;25.40;92.10
47310;DHT22;33046;52.270;6.832;2023-07-29T12:58:21;25.40;92.30
47310;DHT22;33046;52.270;6.832;2023-07-29T13:00:28;25.40;92.50
47310;DHT22;33046;52.270;6.832;2023-07-29T13:02:35;25.40;92.40
47310;DHT22;33046;52.270;6.832;2023-07-29T13:04:43;25.40;91.50
47310;DHT22;33046;52.270;6.832;2023-07-29T13:06:50;25.40;91.50
47310;DHT22;33046;52.270;6.832;2023-07-29T13:08:57;25.40;91.90
47310;DHT22;33046;52.270;6.832;2023-07-29T13:11:04;25.40;92.20
47310;DHT22;33046;52.270;6.832;2023-07-29T13:13:11;25.40;91.50
47310;DHT22;33046;52.270;6.832;2023-07-29T13:15:18;25.30;92.40
47310;DHT22;33046;52.270;6.832;2023-07-29T13:17:25;25.30;91.60
47310;DHT22;33046;52.270;6.832;2023-07-29T13:19:32;25.30;91.80
47310;DHT22;33046;52.270;6.832;2023-07-29T13:21:40;25.30;91.80
47310;DHT22;33046;52.270;6.832;2023-07-29T13:23:47;25.20;91.90
47310;DHT22;33046;52.270;6.832;2023-07-29T13:25:53;25.30;91.40